createdAt,value
2022-10-06T00:01:35.583Z,17.00
2022-10-06T00:04:04.029Z,17.00
2022-10-06T00:06:32.361Z,17.00
2022-10-06T00:09:00.778Z,17.00
2022-10-06T00:11:30.576Z,17.00
2022-10-06T00:13:58.956Z,17.00
2022-10-06T00:16:27.350Z,17.00
2022-10-06T00:18:56.958Z,16.90
2022-10-06T00:21:25.336Z,16.90
2022-10-06T00:23:53.690Z,16.90
2022-10-06T00:26:22.102Z,16.90
2022-10-06T00:28:51.903Z,16.90
2022-10-06T00:31:20.476Z,16.90
2022-10-06T00:33:50.209Z,16.90
2022-10-06T00:36:18.676Z,17.00
2022-10-06T00:38:47.076Z,17.00
2022-10-06T00:41:16.357Z,16.90
2022-10-06T00:43:46.751Z,16.90
2022-10-06T00:46:19.661Z,16.90
2022-10-06T00:48:49.809Z,16.80
2022-10-06T00:51:18.269Z,16.80
2022-10-06T00:53:46.695Z,16.70
2022-10-06T00:56:15.374Z,16.70
2022-10-06T00:58:43.757Z,16.70
2022-10-06T01:01:13.529Z,16.80
2022-10-06T01:03:44.856Z,16.90
2022-10-06T01:06:13.357Z,16.90
2022-10-06T01:08:41.990Z,16.80
2022-10-06T01:11:13.259Z,16.80
2022-10-06T01:13:43.421Z,16.90
2022-10-06T01:16:14.689Z,16.80
2022-10-06T01:18:45.816Z,16.60
2022-10-06T01:21:16.671Z,16.50
2022-10-06T01:23:46.509Z,16.50
2022-10-06T01:26:15.783Z,16.50
2022-10-06T01:28:44.244Z,16.60
2022-10-06T01:31:12.761Z,16.60
2022-10-06T01:33:41.796Z,16.60
2022-10-06T01:36:10.279Z,16.50
2022-10-06T01:38:38.666Z,16.50
2022-10-06T01:41:08.467Z,16.50
2022-10-06T01:43:36.810Z,16.50
2022-10-06T01:46:05.226Z,16.40
2022-10-06T01:48:36.125Z,16.50
2022-10-06T01:51:04.658Z,16.50
2022-10-06T01:53:33.689Z,16.50
2022-10-06T01:56:02.087Z,16.50
2022-10-06T01:58:32.338Z,16.50
2022-10-06T02:01:06.118Z,16.50
2022-10-06T02:03:36.268Z,16.40
2022-10-06T02:06:05.063Z,16.30
2022-10-06T02:08:33.554Z,16.30
2022-10-06T02:11:06.087Z,16.30
2022-10-06T02:13:36.362Z,16.30
2022-10-06T02:16:06.760Z,16.30
2022-10-06T02:18:35.255Z,16.30
2022-10-06T02:21:04.104Z,16.20
2022-10-06T02:23:32.884Z,16.20
2022-10-06T02:26:01.549Z,16.20
2022-10-06T02:28:31.536Z,16.10
2022-10-06T02:31:03.554Z,16.10
2022-10-06T02:33:32.562Z,16.20
2022-10-06T02:36:00.990Z,16.20
2022-10-06T02:38:30.532Z,16.30
2022-10-06T02:40:59.276Z,16.30
2022-10-06T02:43:28.977Z,16.30
2022-10-06T02:45:57.945Z,16.30
2022-10-06T02:48:28.434Z,16.30
2022-10-06T02:50:57.484Z,16.30
2022-10-06T02:53:26.895Z,16.30
2022-10-06T02:55:59.179Z,16.40
2022-10-06T02:58:28.155Z,16.40
2022-10-06T03:00:56.795Z,16.30
2022-10-06T03:03:25.214Z,16.30
2022-10-06T03:06:01.356Z,16.30
2022-10-06T03:08:30.103Z,16.10
2022-10-06T03:11:02.368Z,16.10
2022-10-06T03:13:31.155Z,16.10
2022-10-06T03:15:59.693Z,16.00
2022-10-06T03:18:28.366Z,16.00
2022-10-06T03:21:02.093Z,16.00
2022-10-06T03:23:30.719Z,16.00
2022-10-06T03:25:59.095Z,16.00
2022-10-06T03:28:28.653Z,16.00
2022-10-06T03:31:01.695Z,16.00
2022-10-06T03:33:30.562Z,16.00
2022-10-06T03:36:04.587Z,16.00
2022-10-06T03:38:33.265Z,15.90
2022-10-06T03:41:05.428Z,15.90
2022-10-06T03:43:34.117Z,16.00
2022-10-06T03:46:02.984Z,16.00
2022-10-06T03:48:32.372Z,16.00
2022-10-06T03:51:01.920Z,16.00
2022-10-06T03:53:32.197Z,16.00
2022-10-06T03:56:01.195Z,16.00
2022-10-06T03:58:30.161Z,16.10
2022-10-06T04:01:03.036Z,16.10
2022-10-06T04:03:31.748Z,16.10
2022-10-06T04:06:01.124Z,16.00
2022-10-06T04:08:30.143Z,16.00
2022-10-06T04:11:07.303Z,16.00
2022-10-06T04:13:35.817Z,16.00
2022-10-06T04:16:14.126Z,16.00
2022-10-06T04:18:42.919Z,15.90
2022-10-06T04:21:11.814Z,15.90
2022-10-06T04:23:40.245Z,15.80
2022-10-06T04:26:12.046Z,15.80
2022-10-06T04:28:41.094Z,15.80
2022-10-06T04:31:13.233Z,15.80
2022-10-06T04:33:41.631Z,15.80
2022-10-06T04:36:10.506Z,15.70
2022-10-06T04:38:39.017Z,15.80
2022-10-06T04:41:08.601Z,15.70
2022-10-06T04:43:38.474Z,15.80
2022-10-06T04:46:30.406Z,15.70
2022-10-06T04:48:56.374Z,15.70
2022-10-06T04:51:26.181Z,15.80
2022-10-06T04:53:54.761Z,15.70
2022-10-06T04:56:24.201Z,15.70
2022-10-06T04:58:55.141Z,15.90
2022-10-06T05:01:24.268Z,15.90
2022-10-06T05:03:53.830Z,15.90
2022-10-06T05:06:22.883Z,15.90
2022-10-06T05:08:52.414Z,15.90
2022-10-06T05:11:25.631Z,15.90
2022-10-06T05:13:56.385Z,15.80
2022-10-06T05:16:25.533Z,15.80
2022-10-06T05:18:54.178Z,15.80
2022-10-06T05:21:23.277Z,15.80
2022-10-06T05:23:51.933Z,15.70
2022-10-06T05:26:21.071Z,15.70
2022-10-06T05:28:49.708Z,15.70
2022-10-06T05:31:20.230Z,15.80
2022-10-06T05:33:48.687Z,15.70
2022-10-06T05:36:18.201Z,15.70
2022-10-06T05:38:47.181Z,15.70
2022-10-06T05:41:16.511Z,15.70
2022-10-06T05:43:45.192Z,15.70
2022-10-06T05:46:17.441Z,15.70
2022-10-06T05:48:48.102Z,15.70
2022-10-06T05:51:17.132Z,15.80
2022-10-06T05:53:45.474Z,15.90
2022-10-06T05:56:14.920Z,16.00
2022-10-06T05:58:44.697Z,16.00
2022-10-06T06:01:13.958Z,16.00
2022-10-06T06:03:43.058Z,16.10
2022-10-06T06:06:17.950Z,16.10
2022-10-06T06:08:46.750Z,16.10
2022-10-06T06:11:15.191Z,16.10
2022-10-06T06:13:43.604Z,16.20
2022-10-06T06:16:13.645Z,16.10
2022-10-06T06:18:42.442Z,16.10
2022-10-06T06:21:11.395Z,16.10
2022-10-06T06:23:41.880Z,16.20
2022-10-06T06:26:11.301Z,16.20
2022-10-06T06:28:40.361Z,16.20
2022-10-06T06:31:09.876Z,16.30
2022-10-06T06:33:39.454Z,16.30
2022-10-06T06:36:13.813Z,16.20
2022-10-06T06:38:43.767Z,16.20
2022-10-06T06:41:15.827Z,16.20
2022-10-06T06:43:44.439Z,16.40
2022-10-06T06:46:15.062Z,16.40
2022-10-06T06:48:43.886Z,16.40
2022-10-06T06:51:12.409Z,16.40
2022-10-06T06:53:41.065Z,16.50
2022-10-06T06:56:10.852Z,16.50
2022-10-06T06:58:39.347Z,16.60
2022-10-06T07:01:08.778Z,16.70
2022-10-06T07:03:56.569Z,16.80
2022-10-06T07:06:28.730Z,16.80
2022-10-06T07:08:57.965Z,16.90
2022-10-06T07:11:28.567Z,17.00
2022-10-06T07:13:58.250Z,17.00
2022-10-06T07:16:43.882Z,17.00
2022-10-06T07:19:29.878Z,17.10
2022-10-06T07:22:17.314Z,17.20
2022-10-06T07:25:03.920Z,17.30
2022-10-06T07:27:36.817Z,17.40
2022-10-06T07:30:05.672Z,17.50
2022-10-06T07:32:34.063Z,17.50
2022-10-06T07:35:03.217Z,17.60
2022-10-06T07:37:31.671Z,17.70
2022-10-06T07:40:00.118Z,17.80
2022-10-06T07:42:28.547Z,17.90
2022-10-06T07:45:15.662Z,18.10
2022-10-06T07:47:44.122Z,18.30
2022-10-06T07:50:13.121Z,18.50
2022-10-06T07:52:42.367Z,18.70
2022-10-06T07:55:11.471Z,18.90
2022-10-06T07:57:39.813Z,19.10
2022-10-06T08:00:10.621Z,19.30
2022-10-06T08:02:39.233Z,19.50
2022-10-06T08:05:08.434Z,19.70
2022-10-06T08:07:36.825Z,19.80
2022-10-06T08:10:05.470Z,20.00
2022-10-06T08:12:37.903Z,20.20
2022-10-06T08:15:07.829Z,20.40
2022-10-06T08:17:37.939Z,20.50
2022-10-06T08:20:10.159Z,20.70
2022-10-06T08:22:40.144Z,20.90
2022-10-06T08:25:10.160Z,21.00
2022-10-06T08:27:40.496Z,21.20
2022-10-06T08:30:09.337Z,21.30
2022-10-06T08:32:41.629Z,21.40
2022-10-06T08:35:10.308Z,21.60
2022-10-06T08:37:38.719Z,21.80
2022-10-06T08:40:08.144Z,21.90
2022-10-06T08:42:39.850Z,22.00
2022-10-06T08:45:14.605Z,22.10
2022-10-06T08:47:51.240Z,22.10
2022-10-06T08:50:21.407Z,22.10
2022-10-06T08:52:53.318Z,22.20
2022-10-06T08:55:30.069Z,22.30
2022-10-06T09:00:44.294Z,22.40
2022-10-06T09:03:18.279Z,22.30
2022-10-06T09:05:48.235Z,22.30
2022-10-06T09:08:24.648Z,22.30
2022-10-06T09:11:00.314Z,22.30
2022-10-06T09:13:31.228Z,22.30
2022-10-06T09:16:01.396Z,22.20
2022-10-06T09:18:49.783Z,22.20
2022-10-06T09:21:24.245Z,22.10
2022-10-06T09:23:57.023Z,22.10
2022-10-06T09:26:30.460Z,22.00
2022-10-06T09:28:59.179Z,21.80
2022-10-06T09:31:28.744Z,21.80
2022-10-06T09:33:59.784Z,21.70
2022-10-06T09:36:28.200Z,21.90
2022-10-06T09:38:57.654Z,21.80
2022-10-06T09:41:28.128Z,21.80
2022-10-06T09:44:00.388Z,21.70
2022-10-06T09:46:33.344Z,21.70
2022-10-06T09:49:15.707Z,21.60
2022-10-06T09:51:59.293Z,21.60
2022-10-06T09:54:28.748Z,21.60
2022-10-06T09:56:57.844Z,21.60
2022-10-06T09:59:34.052Z,21.60
2022-10-06T10:02:05.336Z,21.50
2022-10-06T10:04:38.574Z,21.50
2022-10-06T10:07:16.305Z,21.50
2022-10-06T10:09:44.703Z,21.40
2022-10-06T10:12:28.512Z,21.50
2022-10-06T10:14:58.189Z,21.50
2022-10-06T10:17:47.321Z,21.30
2022-10-06T10:20:37.191Z,21.30
2022-10-06T10:23:08.210Z,21.30
2022-10-06T10:25:51.390Z,21.30
2022-10-06T10:28:24.836Z,21.30
2022-10-06T10:31:00.452Z,21.40
2022-10-06T10:33:31.210Z,21.50
2022-10-06T10:36:01.908Z,21.50
2022-10-06T10:38:32.831Z,21.50
2022-10-06T10:41:04.488Z,21.60
2022-10-06T10:43:35.186Z,21.60
2022-10-06T10:46:05.373Z,21.60
2022-10-06T10:48:37.265Z,21.60
2022-10-06T10:51:08.919Z,21.50
2022-10-06T10:53:42.706Z,21.50
2022-10-06T10:56:12.457Z,21.70
2022-10-06T10:58:42.973Z,21.80
2022-10-06T11:01:16.929Z,21.90
2022-10-06T11:03:56.651Z,21.80
2022-10-06T11:06:41.764Z,21.90
2022-10-06T11:09:12.055Z,21.80
2022-10-06T11:11:51.287Z,21.60
2022-10-06T11:14:26.733Z,21.70
2022-10-06T11:17:01.556Z,21.70
2022-10-06T11:19:36.213Z,21.80
2022-10-06T11:22:11.772Z,21.80
2022-10-06T11:24:44.789Z,21.80
2022-10-06T11:27:20.578Z,21.80
2022-10-06T11:29:53.649Z,21.90
2022-10-06T11:32:26.588Z,21.90
2022-10-06T11:34:55.192Z,22.00
2022-10-06T11:37:33.976Z,21.90
2022-10-06T11:40:07.145Z,21.90
2022-10-06T11:42:40.336Z,21.90
2022-10-06T11:45:13.934Z,21.90
2022-10-06T11:47:48.627Z,21.90
2022-10-06T11:50:36.607Z,21.70
2022-10-06T11:53:06.785Z,21.80
2022-10-06T11:55:35.148Z,21.90
2022-10-06T11:58:23.499Z,21.90
2022-10-06T12:00:54.758Z,21.90
2022-10-06T12:03:40.812Z,21.90
2022-10-06T12:06:24.820Z,21.90
2022-10-06T12:08:54.556Z,21.90
2022-10-06T12:11:39.253Z,21.80
2022-10-06T12:15:31.946Z,21.70
2022-10-06T12:17:11.691Z,21.80
2022-10-06T12:19:50.273Z,21.80
2022-10-06T12:22:22.573Z,21.80
2022-10-06T12:24:57.658Z,21.70
2022-10-06T12:27:31.453Z,21.60
2022-10-06T12:30:02.952Z,21.60
2022-10-06T12:32:40.674Z,21.60
2022-10-06T12:35:24.657Z,21.70
2022-10-06T12:37:54.728Z,21.70
2022-10-06T12:40:41.940Z,21.80
2022-10-06T12:43:40.255Z,21.70
2022-10-06T12:46:16.493Z,21.60
2022-10-06T12:48:51.194Z,21.60
2022-10-06T12:51:25.893Z,21.60
2022-10-06T12:54:00.399Z,21.60
2022-10-06T12:56:30.156Z,21.70
2022-10-06T12:58:59.001Z,21.60
2022-10-06T13:01:29.052Z,21.60
2022-10-06T13:03:57.562Z,21.60
2022-10-06T13:06:26.349Z,21.60
2022-10-06T13:09:08.273Z,21.50
2022-10-06T13:11:36.628Z,21.40
2022-10-06T13:14:09.490Z,21.30
2022-10-06T13:16:41.065Z,21.30
2022-10-06T13:19:16.335Z,21.40
2022-10-06T13:21:45.275Z,21.40
2022-10-06T13:24:14.598Z,21.40
2022-10-06T13:26:43.073Z,21.50
2022-10-06T13:29:18.445Z,21.60
2022-10-06T13:31:52.620Z,21.60
2022-10-06T13:34:30.051Z,21.60
2022-10-06T13:36:59.722Z,21.50
2022-10-06T13:39:31.929Z,21.60
2022-10-06T13:42:02.489Z,21.60
2022-10-06T13:44:35.956Z,21.60
2022-10-06T13:47:07.380Z,21.60
2022-10-06T13:49:37.310Z,21.60
2022-10-06T13:52:10.087Z,21.50
2022-10-06T13:54:42.184Z,21.50
2022-10-06T13:57:28.279Z,21.40
2022-10-06T14:00:03.044Z,21.50
2022-10-06T14:02:33.684Z,21.50
2022-10-06T14:05:20.396Z,21.50
2022-10-06T14:07:49.107Z,21.60
2022-10-06T14:10:18.282Z,21.60
2022-10-06T14:12:47.085Z,21.60
2022-10-06T14:15:19.285Z,21.50
2022-10-06T14:17:53.684Z,21.60
2022-10-06T14:20:36.985Z,21.70
2022-10-06T14:23:20.212Z,21.70
2022-10-06T14:25:50.303Z,21.60
2022-10-06T14:28:18.678Z,21.50
2022-10-06T14:30:47.248Z,21.50
2022-10-06T14:33:17.118Z,21.40
2022-10-06T14:35:45.631Z,21.50
2022-10-06T14:38:14.085Z,21.50
2022-10-06T14:40:42.635Z,21.40
2022-10-06T14:43:11.500Z,21.50
2022-10-06T14:45:43.174Z,21.40
2022-10-06T14:48:12.012Z,21.40
2022-10-06T14:50:43.289Z,21.40
2022-10-06T14:53:13.856Z,21.40
2022-10-06T14:55:42.258Z,21.40
2022-10-06T14:58:10.662Z,21.40
2022-10-06T15:00:42.546Z,21.40
2022-10-06T15:03:11.180Z,21.50
2022-10-06T15:06:01.027Z,21.50
2022-10-06T15:08:28.405Z,21.40
2022-10-06T15:10:56.778Z,21.40
2022-10-06T15:13:25.289Z,21.40
2022-10-06T15:15:58.276Z,21.30
2022-10-06T15:18:27.566Z,21.30
2022-10-06T15:21:02.886Z,21.30
2022-10-06T15:23:31.497Z,21.20
2022-10-06T15:26:17.000Z,21.10
2022-10-06T15:29:03.272Z,21.10
2022-10-06T15:31:32.979Z,21.10
2022-10-06T15:34:02.332Z,21.00
2022-10-06T15:36:33.509Z,21.10
2022-10-06T15:39:05.109Z,21.10
2022-10-06T15:41:34.005Z,21.10
2022-10-06T15:44:02.541Z,21.10
2022-10-06T15:46:31.638Z,21.00
2022-10-06T15:49:01.569Z,21.00
2022-10-06T15:51:30.702Z,21.00
2022-10-06T15:54:00.460Z,21.00
2022-10-06T15:56:31.258Z,20.90
2022-10-06T15:58:59.770Z,20.90
2022-10-06T16:01:40.376Z,20.90
2022-10-06T16:04:15.893Z,20.80
2022-10-06T16:06:50.044Z,20.80
2022-10-06T16:09:19.872Z,20.80
2022-10-06T16:11:48.620Z,20.80
2022-10-06T16:14:17.379Z,20.70
2022-10-06T16:16:46.532Z,20.70
2022-10-06T16:19:15.430Z,20.70
2022-10-06T16:21:44.135Z,20.70
2022-10-06T16:24:12.525Z,20.70
2022-10-06T16:26:42.394Z,20.70
2022-10-06T16:29:10.957Z,20.70
2022-10-06T16:31:39.529Z,20.60
2022-10-06T16:34:08.029Z,20.60
2022-10-06T16:36:36.978Z,20.60
2022-10-06T16:39:06.108Z,20.50
2022-10-06T16:41:34.935Z,20.50
2022-10-06T16:44:04.778Z,20.60
2022-10-06T16:46:33.697Z,20.50
2022-10-06T16:49:02.921Z,20.50
2022-10-06T16:51:31.947Z,20.50
2022-10-06T16:54:01.004Z,20.40
2022-10-06T16:56:30.779Z,20.40
2022-10-06T16:59:00.339Z,20.40
2022-10-06T17:01:30.877Z,20.40
2022-10-06T17:03:59.608Z,20.30
2022-10-06T17:06:27.995Z,20.30
2022-10-06T17:08:56.815Z,20.30
2022-10-06T17:11:25.868Z,20.30
2022-10-06T17:13:55.302Z,20.30
2022-10-06T17:16:24.927Z,20.30
2022-10-06T17:18:55.739Z,20.30
2022-10-06T17:21:44.831Z,20.20
2022-10-06T17:24:13.006Z,20.20
2022-10-06T17:26:42.187Z,20.20
2022-10-06T17:29:14.020Z,20.20
2022-10-06T17:31:44.089Z,20.20
2022-10-06T17:34:19.547Z,20.20
2022-10-06T17:36:51.042Z,20.20
2022-10-06T17:39:20.195Z,20.20
2022-10-06T17:41:49.351Z,20.20
2022-10-06T17:44:23.192Z,20.20
2022-10-06T17:46:52.858Z,20.20
2022-10-06T17:49:24.120Z,20.20
2022-10-06T17:51:53.649Z,20.20
2022-10-06T17:54:23.457Z,20.20
2022-10-06T17:56:52.630Z,20.20
2022-10-06T17:59:22.479Z,20.20
2022-10-06T18:01:52.030Z,20.20
2022-10-06T18:04:22.199Z,20.20
2022-10-06T18:06:53.069Z,20.20
2022-10-06T18:09:21.939Z,20.10
2022-10-06T18:11:55.011Z,20.10
2022-10-06T18:14:24.387Z,20.10
2022-10-06T18:16:56.259Z,20.00
2022-10-06T18:19:29.955Z,20.00
2022-10-06T18:22:00.292Z,19.90
2022-10-06T18:24:29.448Z,19.90
2022-10-06T18:26:58.664Z,19.80
2022-10-06T18:29:29.100Z,19.80
2022-10-06T18:32:09.365Z,19.80
2022-10-06T18:37:35.722Z,19.90
2022-10-06T18:40:06.605Z,19.80
2022-10-06T18:42:35.213Z,19.80
2022-10-06T18:45:21.294Z,19.80
2022-10-06T18:48:06.884Z,19.80
2022-10-06T18:50:36.664Z,19.90
2022-10-06T18:53:05.167Z,19.80
2022-10-06T18:55:35.030Z,19.80
2022-10-06T18:58:04.701Z,19.80
2022-10-06T19:00:33.428Z,19.70
2022-10-06T19:03:02.041Z,19.70
2022-10-06T19:05:31.267Z,19.70
2022-10-06T19:08:01.763Z,19.70
2022-10-06T19:10:30.949Z,19.60
2022-10-06T19:12:59.375Z,19.60
2022-10-06T19:15:27.748Z,19.60
2022-10-06T19:17:56.063Z,19.60
2022-10-06T19:20:24.542Z,19.60
2022-10-06T19:22:52.927Z,19.60
2022-10-06T19:25:23.940Z,19.60
2022-10-06T19:27:52.447Z,19.50
2022-10-06T19:30:21.064Z,19.60
2022-10-06T19:32:50.159Z,19.50
2022-10-06T19:35:19.053Z,19.50
2022-10-06T19:37:47.444Z,19.50
2022-10-06T19:40:15.834Z,19.50
2022-10-06T19:42:47.523Z,19.50
2022-10-06T19:45:16.592Z,19.50
2022-10-06T19:47:46.592Z,19.50
2022-10-06T19:50:16.368Z,19.40
2022-10-06T19:52:45.238Z,19.50
2022-10-06T19:55:13.849Z,19.40
2022-10-06T19:57:43.222Z,19.40
2022-10-06T20:00:14.041Z,19.40
2022-10-06T20:02:43.916Z,19.40
2022-10-06T20:05:13.068Z,19.40
2022-10-06T20:07:42.282Z,19.40
2022-10-06T20:10:11.961Z,19.40
2022-10-06T20:12:41.508Z,19.40
2022-10-06T20:15:11.104Z,19.40
2022-10-06T20:17:42.429Z,19.40
2022-10-06T20:20:11.399Z,19.30
2022-10-06T20:22:39.847Z,19.30
2022-10-06T20:25:08.330Z,19.30
2022-10-06T20:27:36.995Z,19.30
2022-10-06T20:30:05.812Z,19.30
2022-10-06T20:32:34.213Z,19.30
2022-10-06T20:35:04.855Z,19.30
2022-10-06T20:37:33.282Z,19.20
2022-10-06T20:40:19.115Z,19.20
2022-10-06T20:42:49.588Z,19.20
2022-10-06T20:45:18.329Z,19.20
2022-10-06T20:47:47.933Z,19.20
2022-10-06T20:50:18.634Z,19.20
2022-10-06T20:52:48.197Z,19.20
2022-10-06T20:55:16.655Z,19.20
2022-10-06T20:57:45.447Z,19.20
2022-10-06T21:00:14.476Z,19.20
2022-10-06T21:02:42.888Z,19.20
2022-10-06T21:05:11.625Z,19.20
2022-10-06T21:07:41.727Z,19.20
2022-10-06T21:10:10.679Z,19.20
2022-10-06T21:12:39.050Z,19.20
2022-10-06T21:15:07.906Z,19.20
2022-10-06T21:17:36.299Z,19.20
2022-10-06T21:20:05.871Z,19.10
2022-10-06T21:22:34.325Z,19.10
2022-10-06T21:25:04.376Z,19.00
2022-10-06T21:27:32.796Z,19.00
2022-10-06T21:30:01.247Z,19.00
2022-10-06T21:32:29.618Z,18.90
2022-10-06T21:34:59.601Z,18.90
2022-10-06T21:37:28.079Z,18.90
2022-10-06T21:40:01.326Z,18.90
2022-10-06T21:42:32.184Z,18.80
2022-10-06T21:45:00.501Z,18.70
2022-10-06T21:47:28.943Z,18.70
2022-10-06T21:49:57.358Z,18.70
2022-10-06T21:52:25.767Z,18.70
2022-10-06T21:54:54.087Z,18.60
2022-10-06T21:57:22.499Z,18.60
2022-10-06T21:59:52.376Z,18.60
2022-10-06T22:02:20.743Z,18.70
2022-10-06T22:04:49.126Z,18.70
2022-10-06T22:07:17.523Z,18.70
2022-10-06T22:09:45.910Z,18.70
2022-10-06T22:12:14.391Z,18.70
2022-10-06T22:14:42.715Z,18.80
2022-10-06T22:17:12.547Z,18.80
2022-10-06T22:19:40.933Z,18.80
2022-10-06T22:22:09.465Z,18.80
2022-10-06T22:24:37.829Z,18.80
2022-10-06T22:27:06.264Z,18.80
2022-10-06T22:29:34.608Z,18.80
2022-10-06T22:32:03.001Z,18.80
2022-10-06T22:34:32.775Z,18.80
2022-10-06T22:37:01.564Z,18.80
2022-10-06T22:39:30.001Z,18.80
2022-10-06T22:41:58.447Z,18.70
2022-10-06T22:44:27.091Z,18.70
2022-10-06T22:46:55.600Z,18.60
2022-10-06T22:49:23.928Z,18.50
2022-10-06T22:51:53.698Z,18.50
2022-10-06T22:54:22.527Z,18.40
2022-10-06T22:56:51.189Z,18.40
2022-10-06T22:59:19.554Z,18.30
2022-10-06T23:01:47.919Z,18.20
2022-10-06T23:04:16.306Z,18.30
2022-10-06T23:06:44.648Z,18.30
2022-10-06T23:09:14.441Z,18.20
2022-10-06T23:11:42.820Z,18.20
2022-10-06T23:14:11.144Z,18.20
2022-10-06T23:16:39.594Z,18.20
2022-10-06T23:19:08.049Z,18.10
2022-10-06T23:21:39.890Z,18.10
2022-10-06T23:24:08.435Z,18.10
2022-10-06T23:26:38.240Z,18.20
2022-10-06T23:29:07.484Z,18.10
2022-10-06T23:31:35.935Z,18.10
2022-10-06T23:34:04.352Z,18.10
2022-10-06T23:36:32.771Z,18.20
2022-10-06T23:39:01.118Z,18.10
2022-10-06T23:41:29.433Z,18.20
2022-10-06T23:43:59.293Z,18.20
2022-10-06T23:46:27.725Z,18.20
2022-10-06T23:48:56.100Z,18.20
2022-10-06T23:51:24.454Z,18.20
2022-10-06T23:53:52.784Z,18.20
2022-10-06T23:56:21.877Z,18.20
2022-10-06T23:58:50.201Z,18.20
